Time;durP1;ratioP1;P1;durP2;ratioP2;P2;SDS_P1;SDS_P2;PMS_P1;PMS_P2;Temp;Humidity;BMP_temperature;BMP_pressure;BME280_temperature;BME280_humidity;BME280_pressure;Samples;Min_cycle;Max_cycle;Signal;HPM_P1;HPM_P2
2021/10/25 00:00:33;;;;;;;31.75;20.30;;;;;;;;;;4984454;28;21459;-77
2021/10/25 00:02:59;;;;;;;31.05;20.40;;;;;;;;;;4973253;28;20342;-77
2021/10/25 00:05:26;;;;;;;29.40;19.70;;;;;;;;;;4985406;28;20061;-76
2021/10/25 00:07:53;;;;;;;30.20;19.77;;;;;;;;;;4995212;28;20131;-77
2021/10/25 00:10:19;;;;;;;32.80;20.95;;;;;;;;;;5001471;28;20827;-77
2021/10/25 00:12:45;;;;;;;29.30;20.60;;;;;;;;;;4991575;28;20049;-76
2021/10/25 00:15:12;;;;;;;32.58;21.13;;;;;;;;;;4988716;28;20046;-78
2021/10/25 00:17:38;;;;;;;29.17;20.27;;;;;;;;;;5005825;28;20050;-77
2021/10/25 00:20:06;;;;;;;30.38;20.15;;;;;;;;;;4999643;28;20042;-76
2021/10/25 00:22:32;;;;;;;30.75;20.00;;;;;;;;;;5004602;28;20367;-77
2021/10/25 00:24:58;;;;;;;30.52;21.20;;;;;;;;;;4998577;28;20045;-78
2021/10/25 00:27:24;;;;;;;35.38;21.48;;;;;;;;;;5000534;28;20121;-77
2021/10/25 00:29:50;;;;;;;33.67;21.73;;;;;;;;;;5006793;28;20041;-77
2021/10/25 00:32:16;;;;;;;35.92;21.27;;;;;;;;;;4985646;28;20081;-77
2021/10/25 00:34:43;;;;;;;37.75;21.35;;;;;;;;;;4991681;28;20077;-78
2021/10/25 00:37:09;;;;;;;32.15;21.75;;;;;;;;;;4990854;28;20038;-77
2021/10/25 00:39:35;;;;;;;32.50;20.83;;;;;;;;;;4994106;28;20137;-78
2021/10/25 00:42:01;;;;;;;35.80;22.42;;;;;;;;;;5010858;28;20045;-77
2021/10/25 00:44:29;;;;;;;36.25;22.33;;;;;;;;;;5005188;28;20486;-77
2021/10/25 00:46:55;;;;;;;40.00;22.70;;;;;;;;;;5009576;28;20049;-78
2021/10/25 00:49:21;;;;;;;40.05;23.25;;;;;;;;;;5006833;28;20056;-77
2021/10/25 00:51:48;;;;;;;31.27;21.98;;;;;;;;;;5004908;28;20196;-76
2021/10/25 00:54:15;;;;;;;37.33;24.08;;;;;;;;;;4984933;28;20185;-77
2021/10/25 00:56:42;;;;;;;37.00;22.40;;;;;;;;;;5005937;28;20052;-77
2021/10/25 00:59:09;;;;;;;32.67;21.40;;;;;;;;;;5004496;28;20053;-77
2021/10/25 01:01:35;;;;;;;37.72;23.20;;;;;;;;;;5011413;28;20248;-78
2021/10/25 01:04:02;;;;;;;39.92;23.85;;;;;;;;;;4986445;28;20084;-78
2021/10/25 01:06:31;;;;;;;42.08;23.55;;;;;;;;;;5003074;28;21033;-77
2021/10/25 01:08:58;;;;;;;37.95;22.95;;;;;;;;;;4987125;28;20078;-77
2021/10/25 01:11:25;;;;;;;36.13;23.20;;;;;;;;;;5001836;28;20042;-76
2021/10/25 01:13:51;;;;;;;37.78;22.83;;;;;;;;;;4977887;28;20081;-78
2021/10/25 01:16:18;;;;;;;40.28;23.88;;;;;;;;;;4986873;28;20501;-78
2021/10/25 01:18:49;;;;;;;33.75;22.90;;;;;;;;;;5006374;28;20052;-77
2021/10/25 01:21:15;;;;;;;38.88;25.05;;;;;;;;;;5011097;28;20089;-77
2021/10/25 01:23:41;;;;;;;41.45;24.40;;;;;;;;;;5001540;28;20049;-78
2021/10/25 01:26:08;;;;;;;35.08;22.67;;;;;;;;;;5006508;28;20421;-76
2021/10/25 01:28:38;;;;;;;34.88;23.15;;;;;;;;;;4995156;28;20050;-79
2021/10/25 01:31:04;;;;;;;36.95;22.90;;;;;;;;;;5012287;28;20080;-78
2021/10/25 01:33:33;;;;;;;41.38;23.23;;;;;;;;;;5007389;28;20109;-79
2021/10/25 01:35:59;;;;;;;34.40;23.90;;;;;;;;;;4992393;28;20466;-78
2021/10/25 01:38:25;;;;;;;34.20;23.60;;;;;;;;;;4995829;28;20497;-79
2021/10/25 01:40:51;;;;;;;36.83;23.63;;;;;;;;;;5007629;28;20042;-79
2021/10/25 01:43:17;;;;;;;41.00;24.35;;;;;;;;;;5005781;28;20078;-78
2021/10/25 01:45:46;;;;;;;38.50;24.50;;;;;;;;;;5004507;28;20435;-78
2021/10/25 01:48:12;;;;;;;39.20;24.25;;;;;;;;;;4984659;28;20056;-78
2021/10/25 01:50:38;;;;;;;39.53;23.73;;;;;;;;;;5000093;28;20723;-78
2021/10/25 01:53:05;;;;;;;41.80;25.17;;;;;;;;;;5008335;28;20148;-77
2021/10/25 01:55:31;;;;;;;37.95;24.40;;;;;;;;;;4998493;28;20039;-78
2021/10/25 01:57:57;;;;;;;33.63;23.33;;;;;;;;;;5002579;28;21811;-78
2021/10/25 02:00:24;;;;;;;41.05;25.17;;;;;;;;;;4978597;28;20396;-78
2021/10/25 02:02:50;;;;;;;37.45;26.00;;;;;;;;;;5003653;28;20100;-78
2021/10/25 02:05:17;;;;;;;36.75;24.35;;;;;;;;;;5003793;28;20092;-78
2021/10/25 02:07:43;;;;;;;41.05;25.08;;;;;;;;;;4993943;28;20050;-78
2021/10/25 02:10:09;;;;;;;43.65;24.95;;;;;;;;;;5003589;28;20428;-77
2021/10/25 02:12:35;;;;;;;43.83;24.92;;;;;;;;;;4984726;28;20050;-78
2021/10/25 02:15:02;;;;;;;38.13;25.52;;;;;;;;;;4995494;28;20112;-78
2021/10/25 02:17:29;;;;;;;39.60;25.30;;;;;;;;;;4995093;28;20060;-78
2021/10/25 02:19:55;;;;;;;38.35;25.50;;;;;;;;;;4998427;28;20444;-78
2021/10/25 02:22:21;;;;;;;36.80;25.33;;;;;;;;;;5004266;28;20044;-78
2021/10/25 02:24:47;;;;;;;40.08;26.38;;;;;;;;;;5006721;28;20101;-78
2021/10/25 02:27:14;;;;;;;40.85;26.88;;;;;;;;;;4989906;28;20049;-76
2021/10/25 02:29:40;;;;;;;41.17;25.00;;;;;;;;;;4985609;28;20048;-78
2021/10/25 02:32:07;;;;;;;40.92;25.52;;;;;;;;;;5003918;28;20393;-79
2021/10/25 02:34:33;;;;;;;37.90;25.20;;;;;;;;;;5005749;28;20075;-79
2021/10/25 02:37:00;;;;;;;38.40;24.60;;;;;;;;;;4990117;28;20058;-78
2021/10/25 02:39:28;;;;;;;41.00;26.35;;;;;;;;;;5004288;28;20046;-78
2021/10/25 02:41:54;;;;;;;41.88;25.50;;;;;;;;;;5001974;28;20066;-78
2021/10/25 02:44:21;;;;;;;43.35;26.65;;;;;;;;;;4998571;28;20141;-77
2021/10/25 02:46:47;;;;;;;42.13;24.98;;;;;;;;;;5004310;28;20458;-78
2021/10/25 02:49:13;;;;;;;40.10;25.67;;;;;;;;;;5001136;28;20061;-78
2021/10/25 02:51:39;;;;;;;37.95;24.42;;;;;;;;;;4988528;28;20046;-78
2021/10/25 02:54:05;;;;;;;44.65;26.05;;;;;;;;;;4999440;28;20115;-78
2021/10/25 02:56:31;;;;;;;37.90;26.48;;;;;;;;;;5003952;28;20072;-78
2021/10/25 02:58:57;;;;;;;37.92;26.00;;;;;;;;;;5001903;28;20456;-78
2021/10/25 03:01:23;;;;;;;42.25;27.05;;;;;;;;;;4969674;28;20489;-78
2021/10/25 03:03:49;;;;;;;44.47;26.33;;;;;;;;;;4993229;28;20058;-78
2021/10/25 03:06:15;;;;;;;40.63;27.13;;;;;;;;;;4999223;28;20101;-77
2021/10/25 03:08:41;;;;;;;43.83;25.88;;;;;;;;;;5001606;28;20069;-77
2021/10/25 03:11:08;;;;;;;39.47;25.88;;;;;;;;;;4987116;28;20049;-78
2021/10/25 03:13:34;;;;;;;40.42;25.98;;;;;;;;;;4994086;28;20659;-78
2021/10/25 03:16:00;;;;;;;40.92;25.45;;;;;;;;;;5001660;28;20049;-78
2021/10/25 03:18:27;;;;;;;45.53;26.10;;;;;;;;;;4983151;28;20475;-76
2021/10/25 03:20:53;;;;;;;44.78;26.17;;;;;;;;;;4999226;28;20494;-77
2021/10/25 03:23:20;;;;;;;39.92;27.25;;;;;;;;;;5018429;28;20136;-78
2021/10/25 03:25:46;;;;;;;45.20;26.75;;;;;;;;;;5002955;28;20042;-78
2021/10/25 03:28:12;;;;;;;44.33;26.38;;;;;;;;;;4994340;28;20116;-78
2021/10/25 03:30:38;;;;;;;40.53;27.23;;;;;;;;;;5001290;28;20045;-78
2021/10/25 03:33:05;;;;;;;42.30;27.00;;;;;;;;;;4974346;28;20092;-78
2021/10/25 03:35:31;;;;;;;43.95;28.05;;;;;;;;;;5001613;28;20042;-78
2021/10/25 03:37:58;;;;;;;46.50;29.42;;;;;;;;;;5001863;28;20041;-77
2021/10/25 03:40:24;;;;;;;43.92;27.65;;;;;;;;;;4987966;28;20493;-77
2021/10/25 03:42:53;;;;;;;49.88;29.40;;;;;;;;;;4982336;28;20050;-78
2021/10/25 03:45:31;;;;;;;38.45;27.17;;;;;;;;;;5001916;28;20096;-77
2021/10/25 03:48:08;;;;;;;45.17;28.98;;;;;;;;;;5000669;28;20046;-79
2021/10/25 03:50:36;;;;;;;42.40;29.33;;;;;;;;;;5003464;28;20088;-78
2021/10/25 03:58:59;;;;;;;42.25;27.30;;;;;;;;;;5003673;28;20397;-78
2021/10/25 04:30:32;;;;;;;40.72;26.08;;;;;;;;;;5008060;28;20061;-78
2021/10/25 04:32:58;;;;;;;38.30;27.33;;;;;;;;;;5002163;28;20054;-78
2021/10/25 04:35:25;;;;;;;37.35;25.00;;;;;;;;;;5005145;28;20433;-76
2021/10/25 04:37:51;;;;;;;35.95;25.40;;;;;;;;;;4992870;28;20077;-77
2021/10/25 04:40:17;;;;;;;34.03;24.20;;;;;;;;;;4989141;28;20059;-79
2021/10/25 04:42:43;;;;;;;39.22;25.65;;;;;;;;;;4990765;28;20048;-78
2021/10/25 04:45:10;;;;;;;36.38;24.17;;;;;;;;;;5025909;28;20404;-78
2021/10/25 04:47:36;;;;;;;36.10;24.38;;;;;;;;;;5005568;28;20129;-78
2021/10/25 04:50:03;;;;;;;37.10;25.52;;;;;;;;;;5004703;28;20054;-77
2021/10/25 04:52:29;;;;;;;34.35;24.30;;;;;;;;;;5007300;28;20100;-78
2021/10/25 04:54:55;;;;;;;35.70;23.67;;;;;;;;;;5009401;28;20045;-78
2021/10/25 04:57:21;;;;;;;35.28;23.85;;;;;;;;;;5004544;28;20515;-78
2021/10/25 04:59:47;;;;;;;34.88;24.05;;;;;;;;;;4982772;28;20048;-78
2021/10/25 05:02:14;;;;;;;35.97;24.23;;;;;;;;;;5004480;28;20045;-78
2021/10/25 05:04:43;;;;;;;36.58;23.70;;;;;;;;;;5012113;28;20049;-79
2021/10/25 05:07:11;;;;;;;31.40;22.80;;;;;;;;;;5013913;28;20085;-77
2021/10/25 05:09:37;;;;;;;35.78;24.85;;;;;;;;;;4991761;28;20057;-78
2021/10/25 05:12:04;;;;;;;32.28;22.48;;;;;;;;;;5002255;28;20042;-78
2021/10/25 05:14:30;;;;;;;33.92;22.60;;;;;;;;;;4989757;28;20111;-78
2021/10/25 05:16:56;;;;;;;28.90;21.50;;;;;;;;;;4997596;28;20042;-76
2021/10/25 05:19:22;;;;;;;33.83;22.77;;;;;;;;;;4979449;28;20045;-83
2021/10/25 05:21:49;;;;;;;31.38;23.05;;;;;;;;;;4998422;28;20085;-83
2021/10/25 05:24:15;;;;;;;35.83;23.25;;;;;;;;;;4981025;28;20053;-78
2021/10/25 05:26:41;;;;;;;33.22;22.45;;;;;;;;;;4984363;28;20049;-78
2021/10/25 05:29:07;;;;;;;37.53;24.60;;;;;;;;;;5001200;28;20430;-78
2021/10/25 05:31:33;;;;;;;34.95;24.67;;;;;;;;;;5005881;28;20061;-78
2021/10/25 05:33:59;;;;;;;35.83;23.38;;;;;;;;;;4977814;28;20520;-77
2021/10/25 05:36:26;;;;;;;37.53;24.38;;;;;;;;;;5002990;28;20042;-77
2021/10/25 05:38:52;;;;;;;39.95;24.30;;;;;;;;;;5005740;28;20053;-78
2021/10/25 05:41:18;;;;;;;38.28;24.98;;;;;;;;;;5005411;28;20380;-79
2021/10/25 05:43:44;;;;;;;38.40;24.33;;;;;;;;;;5002275;28;20049;-78
2021/10/25 05:46:10;;;;;;;35.63;23.40;;;;;;;;;;5001223;28;20049;-79
2021/10/25 05:48:40;;;;;;;34.78;24.45;;;;;;;;;;4985822;28;20045;-80
2021/10/25 05:51:06;;;;;;;33.03;23.15;;;;;;;;;;5008665;28;20555;-79
2021/10/25 05:53:32;;;;;;;38.50;25.23;;;;;;;;;;4985899;28;20058;-77
2021/10/25 05:55:59;;;;;;;32.00;22.40;;;;;;;;;;5011274;28;20397;-78
2021/10/25 05:58:26;;;;;;;38.60;24.45;;;;;;;;;;4981768;28;20050;-89
2021/10/25 06:00:55;;;;;;;40.67;26.77;;;;;;;;;;4993606;28;20115;-79
2021/10/25 06:03:27;;;;;;;37.03;24.88;;;;;;;;;;5010865;28;20112;-86
2021/10/25 06:05:53;;;;;;;35.75;25.17;;;;;;;;;;5000341;28;20049;-78
2021/10/25 06:08:20;;;;;;;40.47;26.33;;;;;;;;;;5006989;28;20143;-78
2021/10/25 06:10:47;;;;;;;40.17;25.88;;;;;;;;;;4997831;28;20058;-79
2021/10/25 06:13:27;;;;;;;43.10;27.05;;;;;;;;;;5005716;28;20072;-77
2021/10/25 06:15:56;;;;;;;43.08;27.73;;;;;;;;;;4985482;28;20504;-77
2021/10/25 06:18:23;;;;;;;39.42;26.92;;;;;;;;;;5005699;28;20261;-79
2021/10/25 06:20:49;;;;;;;44.67;27.38;;;;;;;;;;4987888;28;20589;-78
2021/10/25 06:23:15;;;;;;;44.05;28.10;;;;;;;;;;4993446;28;20303;-78
2021/10/25 06:25:42;;;;;;;49.67;30.65;;;;;;;;;;5003135;28;20161;-78
2021/10/25 06:28:09;;;;;;;55.50;32.95;;;;;;;;;;5000169;28;20053;-78
2021/10/25 06:30:37;;;;;;;56.83;32.72;;;;;;;;;;4999137;28;20111;-79
2021/10/25 06:33:04;;;;;;;62.92;34.88;;;;;;;;;;5002240;28;20085;-77
2021/10/25 06:35:31;;;;;;;50.85;31.83;;;;;;;;;;4986429;28;20043;-79
2021/10/25 06:38:10;;;;;;;56.03;33.92;;;;;;;;;;4999781;28;20049;-79
2021/10/25 06:40:36;;;;;;;60.15;36.15;;;;;;;;;;4991691;28;20061;-78
2021/10/25 06:43:02;;;;;;;57.55;34.00;;;;;;;;;;4988651;28;20042;-79
2021/10/25 06:45:28;;;;;;;61.47;36.95;;;;;;;;;;4984860;28;20089;-78
2021/10/25 06:47:55;;;;;;;66.28;37.55;;;;;;;;;;4999055;28;20037;-78
2021/10/25 06:50:26;;;;;;;52.15;34.33;;;;;;;;;;5005593;28;20050;-79
2021/10/25 06:53:01;;;;;;;66.45;39.20;;;;;;;;;;5000611;28;20050;-79
2021/10/25 06:55:27;;;;;;;64.20;38.38;;;;;;;;;;5005910;28;20037;-79
2021/10/25 06:57:53;;;;;;;71.85;38.70;;;;;;;;;;4969965;28;20088;-79
2021/10/25 07:00:19;;;;;;;68.03;39.83;;;;;;;;;;4999777;28;20077;-79
2021/10/25 07:02:45;;;;;;;68.63;40.92;;;;;;;;;;4981712;28;20081;-80
2021/10/25 07:05:12;;;;;;;80.72;43.78;;;;;;;;;;4992501;28;20062;-79
2021/10/25 07:07:38;;;;;;;71.13;42.10;;;;;;;;;;5003126;28;20366;-79
2021/10/25 07:10:05;;;;;;;83.85;43.63;;;;;;;;;;4992537;28;20052;-79
2021/10/25 07:12:31;;;;;;;90.90;46.33;;;;;;;;;;5009101;28;20488;-77
2021/10/25 07:14:59;;;;;;;64.50;37.90;;;;;;;;;;5007936;28;20112;-80
2021/10/25 07:17:31;;;;;;;72.53;42.58;;;;;;;;;;4989610;28;20066;-80
2021/10/25 07:20:21;;;;;;;73.53;40.95;;;;;;;;;;5011203;28;20075;-80
2021/10/25 08:01:12;;;;;;;73.97;42.60;;;;;;;;;;5005970;28;20112;-75
2021/10/25 08:06:39;;;;;;;77.68;43.90;;;;;;;;;;5007717;28;20046;-75
2021/10/25 08:09:15;;;;;;;72.10;42.20;;;;;;;;;;5005410;28;20057;-75
2021/10/25 08:11:46;;;;;;;62.25;40.28;;;;;;;;;;4981121;28;20080;-75
2021/10/25 08:14:13;;;;;;;64.70;39.50;;;;;;;;;;5004800;28;20383;-75
2021/10/25 08:16:51;;;;;;;65.15;39.50;;;;;;;;;;5004245;28;20042;-75
2021/10/25 08:19:27;;;;;;;73.55;43.08;;;;;;;;;;4997949;28;20054;-76
2021/10/25 08:21:59;;;;;;;62.47;40.50;;;;;;;;;;4980869;28;20058;-78
2021/10/25 08:24:26;;;;;;;64.75;38.88;;;;;;;;;;5002245;28;20042;-81
2021/10/25 08:26:52;;;;;;;76.95;43.45;;;;;;;;;;4972611;28;20121;-81
2021/10/25 08:29:19;;;;;;;70.55;41.10;;;;;;;;;;5008215;28;20096;-76
2021/10/25 08:31:50;;;;;;;54.50;35.88;;;;;;;;;;4962943;28;20038;-77
2021/10/25 08:34:33;;;;;;;62.67;39.42;;;;;;;;;;4981842;28;20064;-79
2021/10/25 08:39:57;;;;;;;86.05;42.20;;;;;;;;;;5003168;28;20041;-77
2021/10/25 08:42:25;;;;;;;64.63;38.28;;;;;;;;;;5002383;28;20117;-75
2021/10/25 08:44:57;;;;;;;63.70;36.95;;;;;;;;;;4983920;28;21775;-81
2021/10/25 08:47:27;;;;;;;61.05;37.67;;;;;;;;;;4985329;28;20042;-74
2021/10/25 08:49:53;;;;;;;50.58;32.80;;;;;;;;;;4990680;28;20104;-76
2021/10/25 08:52:20;;;;;;;59.03;37.20;;;;;;;;;;4984988;28;20513;-75
2021/10/25 08:54:48;;;;;;;60.00;36.15;;;;;;;;;;4994068;28;20485;-76
2021/10/25 08:57:14;;;;;;;59.33;35.50;;;;;;;;;;5003831;28;20107;-76
2021/10/25 08:59:40;;;;;;;56.72;34.45;;;;;;;;;;5000466;28;20057;-76
2021/10/25 09:02:07;;;;;;;50.00;32.30;;;;;;;;;;5011009;28;20050;-76
2021/10/25 09:04:33;;;;;;;54.45;36.22;;;;;;;;;;4980346;28;20061;-78
2021/10/25 09:07:00;;;;;;;55.17;35.35;;;;;;;;;;5010120;28;20061;-79
2021/10/25 09:09:26;;;;;;;61.08;36.45;;;;;;;;;;4995322;28;20050;-76
2021/10/25 09:11:55;;;;;;;59.33;33.67;;;;;;;;;;5009264;28;20160;-77
2021/10/25 09:14:21;;;;;;;54.05;34.90;;;;;;;;;;5011426;28;20462;-77
2021/10/25 09:16:54;;;;;;;57.38;36.20;;;;;;;;;;4994050;28;20042;-83
2021/10/25 09:19:21;;;;;;;57.53;36.15;;;;;;;;;;4982441;28;20054;-81
2021/10/25 09:21:47;;;;;;;52.35;31.48;;;;;;;;;;5001811;28;21898;-80
2021/10/25 09:24:18;;;;;;;56.53;34.20;;;;;;;;;;5007385;28;20050;-83
2021/10/25 09:26:44;;;;;;;54.70;33.05;;;;;;;;;;5000044;28;20461;-81
2021/10/25 09:29:11;;;;;;;49.75;32.90;;;;;;;;;;4988313;28;20041;-82
2021/10/25 09:31:38;;;;;;;54.75;34.88;;;;;;;;;;5008306;28;20378;-83
2021/10/25 09:34:11;;;;;;;46.90;31.10;;;;;;;;;;4985261;28;20046;-81
2021/10/25 09:36:45;;;;;;;44.53;29.80;;;;;;;;;;5006452;28;20086;-84
2021/10/25 09:39:20;;;;;;;48.78;32.25;;;;;;;;;;4998811;28;20042;-83
2021/10/25 09:50:05;;;;;;;47.63;31.17;;;;;;;;;;5005407;28;20645;-76
2021/10/25 09:52:32;;;;;;;47.90;31.52;;;;;;;;;;4979731;28;20137;-76
2021/10/25 09:54:59;;;;;;;50.58;32.85;;;;;;;;;;5007231;28;20049;-76
2021/10/25 09:57:37;;;;;;;41.17;28.92;;;;;;;;;;5009030;28;20050;-76
2021/10/25 10:00:04;;;;;;;41.80;28.80;;;;;;;;;;5008515;28;20185;-76
2021/10/25 10:02:31;;;;;;;39.85;29.67;;;;;;;;;;4997048;28;20129;-81
2021/10/25 10:04:59;;;;;;;50.55;30.05;;;;;;;;;;5001817;28;20387;-79
2021/10/25 10:07:28;;;;;;;39.05;27.70;;;;;;;;;;5004410;28;20632;-78
2021/10/25 10:09:55;;;;;;;41.20;27.85;;;;;;;;;;5010359;28;20052;-79
2021/10/25 10:12:23;;;;;;;45.65;28.52;;;;;;;;;;4990424;28;20049;-76
2021/10/25 10:14:50;;;;;;;40.45;27.63;;;;;;;;;;5007573;28;20042;-81
2021/10/25 10:17:27;;;;;;;32.80;26.05;;;;;;;;;;4982040;28;20045;-76
2021/10/25 10:19:54;;;;;;;35.40;26.73;;;;;;;;;;5011581;28;20125;-76
2021/10/25 10:22:21;;;;;;;39.17;28.10;;;;;;;;;;5011120;28;20577;-76
2021/10/25 10:24:51;;;;;;;40.67;27.55;;;;;;;;;;5007386;28;20069;-78
2021/10/25 10:27:23;;;;;;;44.03;28.90;;;;;;;;;;5007406;28;20072;-76
2021/10/25 10:29:53;;;;;;;41.13;27.13;;;;;;;;;;4995550;28;20074;-78
2021/10/25 10:32:19;;;;;;;33.88;25.80;;;;;;;;;;5007363;28;20046;-78
2021/10/25 10:34:46;;;;;;;31.50;23.67;;;;;;;;;;4987476;28;20050;-77
2021/10/25 10:37:17;;;;;;;33.08;23.90;;;;;;;;;;5007172;28;20126;-81
2021/10/25 10:39:44;;;;;;;30.05;22.35;;;;;;;;;;5007500;28;20393;-80
2021/10/25 10:42:11;;;;;;;30.20;22.45;;;;;;;;;;4994915;28;20060;-79
2021/10/25 10:44:47;;;;;;;28.52;20.52;;;;;;;;;;5003435;28;20073;-79
2021/10/25 10:47:18;;;;;;;31.80;23.17;;;;;;;;;;4998068;28;20045;-80
2021/10/25 10:49:48;;;;;;;29.27;19.88;;;;;;;;;;5021968;28;20045;-80
2021/10/25 10:53:07;;;;;;;21.48;18.05;;;;;;;;;;5004033;28;20375;-79
2021/10/25 10:55:17;;;;;;;23.58;18.95;;;;;;;;;;5004322;28;20054;-79
2021/10/25 11:00:23;;;;;;;28.67;21.33;;;;;;;;;;5014150;28;20044;-77
2021/10/25 11:02:59;;;;;;;25.15;19.17;;;;;;;;;;5027484;28;20371;-78
2021/10/25 11:05:33;;;;;;;29.40;22.13;;;;;;;;;;5011527;28;20050;-79
2021/10/25 11:08:11;;;;;;;24.30;19.65;;;;;;;;;;5012335;28;20049;-78
2021/10/25 11:10:38;;;;;;;23.38;19.05;;;;;;;;;;5010018;28;20049;-78
2021/10/25 11:13:22;;;;;;;26.45;20.20;;;;;;;;;;5013118;28;20412;-79
2021/10/25 11:15:52;;;;;;;21.88;17.50;;;;;;;;;;5006356;28;20124;-80
2021/10/25 11:18:26;;;;;;;27.08;18.55;;;;;;;;;;5010130;28;20482;-79
2021/10/25 11:21:05;;;;;;;26.63;18.40;;;;;;;;;;5014127;28;20588;-80
2021/10/25 11:23:37;;;;;;;23.13;17.00;;;;;;;;;;5011430;28;20061;-80
2021/10/25 11:26:09;;;;;;;21.20;16.05;;;;;;;;;;5013854;28;20120;-79
2021/10/25 11:28:35;;;;;;;18.95;15.40;;;;;;;;;;5027781;28;20159;-78
2021/10/25 11:31:02;;;;;;;20.33;15.98;;;;;;;;;;4991319;28;20050;-78
2021/10/25 11:33:28;;;;;;;19.75;16.70;;;;;;;;;;5008213;28;20053;-78
2021/10/25 11:35:56;;;;;;;21.38;16.33;;;;;;;;;;5010715;28;20532;-78
2021/10/25 11:38:22;;;;;;;22.98;17.48;;;;;;;;;;4989450;28;20399;-80
2021/10/25 11:40:48;;;;;;;21.48;16.63;;;;;;;;;;4986548;28;20469;-80
2021/10/25 11:43:14;;;;;;;20.10;15.80;;;;;;;;;;4987216;28;20613;-79
2021/10/25 11:45:41;;;;;;;21.45;16.77;;;;;;;;;;4987747;28;20049;-77
2021/10/25 11:48:07;;;;;;;22.58;18.35;;;;;;;;;;5005086;28;20053;-77
2021/10/25 11:50:34;;;;;;;20.90;17.17;;;;;;;;;;4988919;28;20080;-80
2021/10/25 11:53:07;;;;;;;23.88;17.67;;;;;;;;;;4999438;28;20699;-78
2021/10/25 11:55:33;;;;;;;18.95;16.20;;;;;;;;;;5007035;28;20049;-78
2021/10/25 11:58:09;;;;;;;25.45;18.90;;;;;;;;;;5002812;28;20462;-80
2021/10/25 12:00:39;;;;;;;22.55;17.60;;;;;;;;;;5005180;28;20497;-80
2021/10/25 12:03:09;;;;;;;23.83;19.13;;;;;;;;;;5007879;28;20482;-78
2021/10/25 12:05:35;;;;;;;21.83;17.40;;;;;;;;;;4998096;28;20571;-77
2021/10/25 12:08:02;;;;;;;26.40;19.40;;;;;;;;;;5005610;28;20472;-78
2021/10/25 12:10:30;;;;;;;26.70;19.30;;;;;;;;;;5003490;28;20116;-79
2021/10/25 12:13:00;;;;;;;26.60;18.73;;;;;;;;;;4996948;28;20068;-77
2021/10/25 12:15:28;;;;;;;24.98;19.98;;;;;;;;;;5005781;28;20045;-77
2021/10/25 12:17:58;;;;;;;30.42;20.90;;;;;;;;;;5028740;28;20065;-80
2021/10/25 12:20:28;;;;;;;31.60;21.63;;;;;;;;;;4997352;28;20496;-81
2021/10/25 12:22:59;;;;;;;33.85;22.17;;;;;;;;;;4986565;28;20042;-81
2021/10/25 12:25:25;;;;;;;36.40;23.77;;;;;;;;;;4983699;28;20041;-80
2021/10/25 12:27:55;;;;;;;36.45;24.20;;;;;;;;;;5006226;28;20048;-80
2021/10/25 12:30:21;;;;;;;38.35;25.67;;;;;;;;;;4994286;28;20091;-78
2021/10/25 12:32:52;;;;;;;41.80;25.23;;;;;;;;;;4995773;28;20042;-79
2021/10/25 12:35:28;;;;;;;42.40;26.77;;;;;;;;;;4992499;28;20241;-80
2021/10/25 12:38:09;;;;;;;46.30;29.05;;;;;;;;;;5002179;28;20080;-76
2021/10/25 12:40:43;;;;;;;49.05;28.13;;;;;;;;;;4993748;28;20046;-77
2021/10/25 12:43:09;;;;;;;50.65;28.20;;;;;;;;;;4990145;28;20045;-78
2021/10/25 12:45:43;;;;;;;45.90;29.58;;;;;;;;;;4989077;28;20393;-78
2021/10/25 12:48:10;;;;;;;41.28;27.38;;;;;;;;;;5029021;28;20132;-79
2021/10/25 12:50:38;;;;;;;49.50;29.17;;;;;;;;;;5017459;28;20092;-81
2021/10/25 12:53:08;;;;;;;52.63;32.08;;;;;;;;;;4994860;28;20049;-78
2021/10/25 12:55:35;;;;;;;49.78;31.23;;;;;;;;;;4995970;28;20049;-78
2021/10/25 12:58:01;;;;;;;48.40;29.60;;;;;;;;;;5030272;28;20053;-77
2021/10/25 13:00:28;;;;;;;47.63;30.45;;;;;;;;;;5009674;28;20148;-78
2021/10/25 13:02:55;;;;;;;53.42;29.77;;;;;;;;;;4996115;28;20050;-76
2021/10/25 13:05:34;;;;;;;54.40;30.73;;;;;;;;;;4993984;28;20055;-78
2021/10/25 13:08:01;;;;;;;48.28;31.25;;;;;;;;;;5006517;28;20049;-75
2021/10/25 13:10:30;;;;;;;51.38;30.88;;;;;;;;;;5011412;28;20745;-75
2021/10/25 13:12:56;;;;;;;46.55;28.95;;;;;;;;;;5005006;28;20125;-75
2021/10/25 13:15:24;;;;;;;50.67;31.00;;;;;;;;;;5009003;28;20053;-75
2021/10/25 13:17:53;;;;;;;49.95;31.25;;;;;;;;;;5000787;28;20848;-75
2021/10/25 13:20:21;;;;;;;55.90;31.02;;;;;;;;;;4985892;28;20141;-78
2021/10/25 13:22:48;;;;;;;54.03;31.95;;;;;;;;;;4984100;28;20057;-78
2021/10/25 13:25:14;;;;;;;62.83;34.22;;;;;;;;;;5036108;28;20468;-78
2021/10/25 13:27:42;;;;;;;60.80;32.55;;;;;;;;;;4987839;28;20047;-76
2021/10/25 13:30:08;;;;;;;59.63;32.63;;;;;;;;;;4991238;28;20058;-78
2021/10/25 13:32:34;;;;;;;61.40;32.88;;;;;;;;;;5015854;28;20096;-78
2021/10/25 13:35:01;;;;;;;60.75;31.73;;;;;;;;;;5008324;28;20401;-79
2021/10/25 13:37:27;;;;;;;54.78;32.25;;;;;;;;;;5006340;28;20056;-78
2021/10/25 13:39:53;;;;;;;69.32;34.38;;;;;;;;;;5000510;28;20049;-76
2021/10/25 13:42:19;;;;;;;54.40;31.45;;;;;;;;;;4966690;28;20254;-77
2021/10/25 13:44:45;;;;;;;59.78;30.80;;;;;;;;;;5005814;28;20050;-76
2021/10/25 13:47:11;;;;;;;55.63;30.17;;;;;;;;;;4984588;28;20058;-74
2021/10/25 13:49:38;;;;;;;55.65;29.88;;;;;;;;;;5008876;28;20513;-75
2021/10/25 13:52:04;;;;;;;54.10;32.33;;;;;;;;;;5007877;28;20053;-78
2021/10/25 13:54:32;;;;;;;51.08;31.45;;;;;;;;;;5001681;28;20158;-76
2021/10/25 13:56:58;;;;;;;54.65;30.90;;;;;;;;;;5002800;28;20124;-78
2021/10/25 13:59:24;;;;;;;50.63;29.52;;;;;;;;;;5002655;28;20128;-77
2021/10/25 14:01:50;;;;;;;54.72;31.70;;;;;;;;;;4987341;28;20050;-77
2021/10/25 14:04:19;;;;;;;52.55;30.55;;;;;;;;;;4988765;28;20124;-77
2021/10/25 14:06:46;;;;;;;61.67;31.75;;;;;;;;;;5005506;28;20077;-76
2021/10/25 14:09:12;;;;;;;64.38;33.78;;;;;;;;;;5036097;28;20461;-77
2021/10/25 14:11:44;;;;;;;52.42;31.95;;;;;;;;;;4996516;28;20062;-80
2021/10/25 14:14:19;;;;;;;55.58;29.40;;;;;;;;;;5026820;28;20133;-78
2021/10/25 14:16:52;;;;;;;54.25;32.17;;;;;;;;;;4990963;28;20047;-78
2021/10/25 14:19:24;;;;;;;58.30;31.75;;;;;;;;;;5006520;28;20128;-78
2021/10/25 14:21:50;;;;;;;61.17;32.92;;;;;;;;;;5011788;28;20053;-77
2021/10/25 14:24:17;;;;;;;49.60;31.73;;;;;;;;;;5013766;28;20044;-77
2021/10/25 14:26:43;;;;;;;61.90;34.42;;;;;;;;;;5000735;28;20051;-79
2021/10/25 14:29:10;;;;;;;55.60;32.30;;;;;;;;;;5005209;28;20038;-81
2021/10/25 14:31:38;;;;;;;68.07;36.72;;;;;;;;;;5012636;28;20053;-81
2021/10/25 14:34:05;;;;;;;59.10;34.17;;;;;;;;;;5008994;28;20046;-80
2021/10/25 14:36:32;;;;;;;73.35;36.13;;;;;;;;;;5005103;28;20060;-77
2021/10/25 14:44:08;;;;;;;62.30;34.45;;;;;;;;;;4999933;28;20061;-78
2021/10/25 14:47:01;;;;;;;65.35;36.85;;;;;;;;;;4979258;28;20233;-78
2021/10/25 14:57:23;;;;;;;81.60;38.95;;;;;;;;;;5000001;28;20054;-77
2021/10/25 14:59:50;;;;;;;73.25;38.72;;;;;;;;;;4992145;28;20053;-77
2021/10/25 15:02:16;;;;;;;78.05;38.58;;;;;;;;;;4989085;28;20496;-79
2021/10/25 15:04:43;;;;;;;76.30;38.88;;;;;;;;;;5007933;28;20058;-78
2021/10/25 15:07:09;;;;;;;68.15;37.80;;;;;;;;;;4991125;28;20050;-78
2021/10/25 15:09:35;;;;;;;75.70;38.85;;;;;;;;;;5006351;28;20042;-77
2021/10/25 15:12:02;;;;;;;72.65;38.80;;;;;;;;;;4984888;28;20045;-79
2021/10/25 15:14:28;;;;;;;72.03;39.45;;;;;;;;;;5006204;28;20046;-78
2021/10/25 15:16:54;;;;;;;64.45;36.35;;;;;;;;;;5007161;28;20068;-78
2021/10/25 15:19:20;;;;;;;75.13;39.20;;;;;;;;;;4987762;28;20049;-76
2021/10/25 15:21:47;;;;;;;68.28;37.78;;;;;;;;;;5005723;28;20053;-77
2021/10/25 15:24:14;;;;;;;83.40;41.90;;;;;;;;;;5001991;28;20046;-76
2021/10/25 15:26:46;;;;;;;70.63;39.08;;;;;;;;;;5007486;28;20065;-76
2021/10/25 15:29:12;;;;;;;77.20;40.03;;;;;;;;;;5028608;28;20042;-76
2021/10/25 15:31:39;;;;;;;71.50;38.45;;;;;;;;;;5004162;28;20056;-77
2021/10/25 15:34:05;;;;;;;75.85;39.00;;;;;;;;;;5008663;28;20074;-77
2021/10/25 15:36:31;;;;;;;81.90;39.40;;;;;;;;;;5009442;28;20050;-77
2021/10/25 15:38:57;;;;;;;80.70;39.83;;;;;;;;;;5001743;28;20038;-77
2021/10/25 15:41:25;;;;;;;79.95;40.17;;;;;;;;;;5007428;28;20046;-77
2021/10/25 15:43:51;;;;;;;75.75;38.08;;;;;;;;;;5004216;28;20045;-77
2021/10/25 15:46:18;;;;;;;83.25;41.45;;;;;;;;;;5005433;28;20081;-77
2021/10/25 15:48:45;;;;;;;62.78;35.78;;;;;;;;;;5009428;28;20125;-77
2021/10/25 15:51:14;;;;;;;66.15;36.97;;;;;;;;;;5008564;28;20108;-76
2021/10/25 15:53:40;;;;;;;70.72;36.53;;;;;;;;;;5011689;28;20049;-76
2021/10/25 15:56:06;;;;;;;73.82;37.70;;;;;;;;;;5015198;28;20406;-78
2021/10/25 15:58:34;;;;;;;64.40;34.35;;;;;;;;;;5015979;28;20060;-77
2021/10/25 16:01:00;;;;;;;61.70;34.50;;;;;;;;;;5002671;28;20046;-78
2021/10/25 16:03:26;;;;;;;72.32;34.50;;;;;;;;;;4995060;28;20069;-76